world map with SOB marked

SOB - Airport

This information may not be accurate or current and is not valid for navigation or flight planning. No warranty of fitness for any purpose is made or implied.

flag of Zalaflag of Hungary

Donate via PayPal

Additional information is available on the NEW Great Circle Mapper

Location
City:  Sármellék, Zala, Hungary
Near (Alt.):Saarmelleek
Name:Hévíz-Belaton Airport (Sármellék International)
ICAO / IATA:LHSM / SOB

Details
Type:Airport (Aerodrome, Airfield)
Use:Public/Civil
Latitude:46°41'11"N (46.686389)
Longitude:17°09'33"E (17.159167)
Elevation:443 ft (135 m)
Runways:1
Longest:8202 × 197 ft (2500 × 60 m)

Time
Timezone:UTC+1 (DST+4)
Local Time:

Weather
METAR:LHSM  041345Z 01011KT 9999 FEW033 05/M03 Q1029 NOSIG

Related Locations
Nearby:
Farthest:CHT: 11747 mi / 18905 km
Waitangi [Tuuta], CIT, NZ

Find:

   beyond  
but within

Other Information
Maps:
Links:
Sources:

  


 


Great Circle Mapper   Great Circle Mapper
Great Circle Mapper FAQ   Great Circle Mapper FAQ
  Karl's Home Page
KLS˛   KLS˛ Home
   GC on Facebook
Airlines of the World   Airlines of the World
Donate via PayPal


Copyright © 2004-2019, Karl L. Swartz. All rights reserved.
All trademarks mentioned herein belong to their respective owners.

Please see credits for attribution and copyright information.

Karl Swartz <karl@kls2.com>
  Powered by FreeBSD
Valid HTML 4.01!
Labeled with ICRA
hCard Microformat
Geo Microformat